createdAt,value
2018-06-08T00:01:36.232Z,6.87
2018-06-08T00:04:05.559Z,8.55
2018-06-08T00:06:34.814Z,6.03
2018-06-08T00:09:05.143Z,7.60
2018-06-08T00:11:34.384Z,7.83
2018-06-08T00:14:03.573Z,6.10
2018-06-08T00:16:32.882Z,3.87
2018-06-08T00:19:02.267Z,5.60
2018-06-08T00:21:31.310Z,6.92
2018-06-08T00:24:00.521Z,5.35
2018-06-08T00:26:29.863Z,5.17
2018-06-08T00:28:59.183Z,4.20
2018-06-08T00:31:28.470Z,6.45
2018-06-08T00:33:57.837Z,5.67
2018-06-08T00:36:27.061Z,6.35
2018-06-08T00:38:56.594Z,5.25
2018-06-08T00:41:25.570Z,8.33
2018-06-08T00:43:54.752Z,5.83
2018-06-08T00:46:23.965Z,8.33
2018-06-08T00:48:53.200Z,6.75
2018-06-08T00:51:22.383Z,8.73
2018-06-08T00:53:51.574Z,7.28
2018-06-08T00:56:31.654Z,5.05
2018-06-08T00:59:00.854Z,6.12
2018-06-08T01:01:30.254Z,7.12
2018-06-08T01:03:59.542Z,4.85
2018-06-08T01:06:28.102Z,5.25
2018-06-08T01:08:57.292Z,5.50
2018-06-08T01:11:26.662Z,4.45
2018-06-08T01:13:55.918Z,6.60
2018-06-08T01:16:25.174Z,5.62
2018-06-08T01:18:54.426Z,4.72
2018-06-08T01:21:23.602Z,7.15
2018-06-08T01:23:52.865Z,5.62
2018-06-08T01:26:21.834Z,6.78
2018-06-08T01:28:51.134Z,6.33
2018-06-08T01:31:20.490Z,4.83
2018-06-08T01:33:49.857Z,5.35
2018-06-08T01:36:19.199Z,5.15
2018-06-08T01:38:48.561Z,4.40
2018-06-08T01:41:17.807Z,4.50
2018-06-08T01:43:47.223Z,4.70
2018-06-08T01:46:16.506Z,4.65
2018-06-08T01:48:45.819Z,6.90
2018-06-08T01:51:15.126Z,4.87
2018-06-08T01:53:44.393Z,6.50
2018-06-08T01:56:13.702Z,7.60
2018-06-08T01:58:42.935Z,7.67
2018-06-08T02:01:12.074Z,6.80
2018-06-08T02:03:41.502Z,7.67
2018-06-08T02:06:10.703Z,7.80
2018-06-08T02:08:40.135Z,5.62
2018-06-08T02:11:09.234Z,8.53
2018-06-08T02:13:38.530Z,6.45
2018-06-08T02:16:07.914Z,5.67
2018-06-08T02:18:37.205Z,7.47
2018-06-08T02:21:06.429Z,9.07
2018-06-08T02:23:35.506Z,7.20
2018-06-08T02:26:04.853Z,8.40
2018-06-08T02:28:34.071Z,5.47
2018-06-08T02:31:03.394Z,7.30
2018-06-08T02:33:32.934Z,8.95
2018-06-08T02:36:02.180Z,8.70
2018-06-08T02:38:31.421Z,11.35
2018-06-08T02:41:00.743Z,6.12
2018-06-08T02:43:29.822Z,12.35
2018-06-08T02:45:59.211Z,15.78
2018-06-08T02:48:28.367Z,10.10
2018-06-08T02:50:57.579Z,9.75
2018-06-08T02:53:26.548Z,8.15
2018-06-08T02:55:55.791Z,10.38
2018-06-08T02:58:25.107Z,11.78
2018-06-08T03:00:54.270Z,9.70
2018-06-08T03:03:23.413Z,9.65
2018-06-08T03:05:52.683Z,8.98
2018-06-08T03:08:21.928Z,11.03
2018-06-08T03:10:51.140Z,13.68
2018-06-08T03:13:20.378Z,12.40
2018-06-08T03:15:49.903Z,12.28
2018-06-08T03:18:19.282Z,9.68
2018-06-08T03:20:48.467Z,12.13
2018-06-08T03:23:17.594Z,9.70
2018-06-08T03:25:46.650Z,9.58
2018-06-08T03:28:15.934Z,9.10
2018-06-08T03:30:45.161Z,10.40
2018-06-08T03:33:14.420Z,10.25
2018-06-08T03:35:43.435Z,9.55
2018-06-08T03:38:12.678Z,9.15
2018-06-08T03:40:41.376Z,11.80
2018-06-08T03:43:10.489Z,12.35
2018-06-08T03:45:39.743Z,10.85
2018-06-08T03:48:08.997Z,12.18
2018-06-08T03:50:38.225Z,10.05
2018-06-08T03:53:07.457Z,10.90
2018-06-08T03:55:36.746Z,12.20
2018-06-08T03:58:05.968Z,10.25
2018-06-08T04:00:35.162Z,10.98
2018-06-08T04:03:04.253Z,10.32
2018-06-08T04:05:33.538Z,9.83
2018-06-08T04:08:02.772Z,10.20
2018-06-08T04:10:32.117Z,10.63
2018-06-08T04:13:01.324Z,13.03
2018-06-08T04:15:30.539Z,10.35
2018-06-08T04:18:02.562Z,10.55
2018-06-08T04:20:31.775Z,9.90
2018-06-08T04:23:01.113Z,11.25
2018-06-08T04:25:30.147Z,10.82
2018-06-08T04:27:59.479Z,11.28
2018-06-08T04:30:28.777Z,10.58
2018-06-08T04:32:58.124Z,12.93
2018-06-08T04:35:27.273Z,10.08
2018-06-08T04:37:57.256Z,13.40
2018-06-08T04:40:26.571Z,14.05
2018-06-08T04:42:55.776Z,11.88
2018-06-08T04:45:25.018Z,13.95
2018-06-08T04:47:54.226Z,10.78
2018-06-08T04:50:23.367Z,11.88
2018-06-08T04:52:52.517Z,13.88
2018-06-08T04:55:21.845Z,12.88
2018-06-08T04:57:51.198Z,13.30
2018-06-08T05:00:20.489Z,10.60
2018-06-08T05:02:49.854Z,14.28
2018-06-08T05:05:19.198Z,12.78
2018-06-08T05:07:48.405Z,16.23
2018-06-08T05:10:17.626Z,12.68
2018-06-08T05:12:47.042Z,14.83
2018-06-08T05:15:17.894Z,21.75
2018-06-08T05:17:48.040Z,14.05
2018-06-08T05:20:18.310Z,17.17
2018-06-08T05:22:47.738Z,18.05
2018-06-08T05:25:17.291Z,14.53
2018-06-08T05:27:47.859Z,14.15
2018-06-08T05:30:19.669Z,16.70
2018-06-08T05:32:48.913Z,16.27
2018-06-08T05:35:18.171Z,15.50
2018-06-08T05:37:47.318Z,15.08
2018-06-08T05:40:16.696Z,18.60
2018-06-08T05:42:45.973Z,17.55
2018-06-08T05:45:15.221Z,19.98
2018-06-08T05:47:44.701Z,17.73
2018-06-08T05:50:13.962Z,16.02
2018-06-08T05:52:43.078Z,20.43
2018-06-08T05:55:13.027Z,19.00
2018-06-08T05:57:42.310Z,17.35
2018-06-08T06:00:11.614Z,16.52
2018-06-08T06:02:41.020Z,16.45
2018-06-08T06:05:10.607Z,17.48
2018-06-08T06:07:39.946Z,20.75
2018-06-08T06:10:09.135Z,23.12
2018-06-08T06:12:38.450Z,17.17
2018-06-08T06:15:07.811Z,16.23
2018-06-08T06:17:37.202Z,20.55
2018-06-08T06:20:08.514Z,16.42
2018-06-08T06:22:37.646Z,15.78
2018-06-08T06:25:06.954Z,15.08
2018-06-08T06:27:36.251Z,19.20
2018-06-08T06:30:06.194Z,17.45
2018-06-08T06:32:35.295Z,19.60
2018-06-08T06:35:04.552Z,19.37
2018-06-08T06:37:33.877Z,18.05
2018-06-08T06:40:03.143Z,17.73
2018-06-08T06:42:32.565Z,20.27
2018-06-08T06:45:02.613Z,16.15
2018-06-08T06:47:31.905Z,17.70
2018-06-08T06:50:31.727Z,17.80
2018-06-08T06:53:01.055Z,20.85
2018-06-08T06:55:30.295Z,19.07
2018-06-08T06:57:59.533Z,17.40
2018-06-08T07:00:28.544Z,20.05
2018-06-08T07:02:57.919Z,23.95
2018-06-08T07:05:27.687Z,16.80
2018-06-08T07:07:57.016Z,19.87
2018-06-08T07:10:26.244Z,18.73
2018-06-08T07:12:55.498Z,23.05
2018-06-08T07:15:24.688Z,19.50
2018-06-08T07:17:53.973Z,17.10
2018-06-08T07:20:23.554Z,16.05
2018-06-08T07:22:52.836Z,17.52
2018-06-08T07:25:22.218Z,19.92
2018-06-08T07:27:51.556Z,16.60
2018-06-08T07:30:21.470Z,16.40
2018-06-08T07:32:50.735Z,16.05
2018-06-08T07:35:19.937Z,17.15
2018-06-08T07:37:49.216Z,15.28
2018-06-08T07:40:18.560Z,13.88
2018-06-08T07:42:47.695Z,20.25
2018-06-08T07:45:17.088Z,20.88
2018-06-08T07:47:46.478Z,14.45
2018-06-08T07:50:15.792Z,18.65
2018-06-08T07:52:45.077Z,18.50
2018-06-08T07:55:14.217Z,14.53
2018-06-08T07:57:43.584Z,15.13
2018-06-08T08:00:12.791Z,21.25
2018-06-08T08:02:42.103Z,15.43
2018-06-08T08:05:11.250Z,14.55
2018-06-08T08:07:40.504Z,17.48
2018-06-08T08:10:09.914Z,15.58
2018-06-08T08:12:39.216Z,16.40
2018-06-08T08:15:08.356Z,14.15
2018-06-08T08:17:37.594Z,15.15
2018-06-08T08:20:06.883Z,14.65
2018-06-08T08:22:36.153Z,14.03
2018-06-08T08:25:05.401Z,14.10
2018-06-08T08:27:34.618Z,15.43
2018-06-08T08:30:03.958Z,12.85
2018-06-08T08:32:33.192Z,16.62
2018-06-08T08:35:02.404Z,13.83
2018-06-08T08:37:31.534Z,14.18
2018-06-08T08:40:00.646Z,12.28
2018-06-08T08:42:29.902Z,11.35
2018-06-08T08:44:59.342Z,13.38
2018-06-08T08:47:28.731Z,11.88
2018-06-08T08:49:57.926Z,12.55
2018-06-08T08:52:27.625Z,14.87
2018-06-08T08:54:56.926Z,10.82
2018-06-08T08:57:26.118Z,11.53
2018-06-08T08:59:55.416Z,12.15
2018-06-08T09:02:24.522Z,11.78
2018-06-08T09:04:53.711Z,10.93
2018-06-08T09:07:22.907Z,14.45
2018-06-08T09:09:53.244Z,13.88
2018-06-08T09:12:22.541Z,11.35
2018-06-08T09:14:51.833Z,14.98
2018-06-08T09:17:21.035Z,17.00
2018-06-08T09:19:50.373Z,12.40
2018-06-08T09:22:19.709Z,12.30
2018-06-08T09:24:48.968Z,13.10
2018-06-08T09:27:18.137Z,9.18
2018-06-08T09:29:47.375Z,12.18
2018-06-08T09:32:16.526Z,11.15
2018-06-08T09:34:45.686Z,12.35
2018-06-08T09:37:15.338Z,17.10
2018-06-08T09:39:44.652Z,11.45
2018-06-08T09:42:13.801Z,10.48
2018-06-08T09:44:43.244Z,13.20
2018-06-08T09:47:12.836Z,8.75
2018-06-08T09:49:42.162Z,11.45
2018-06-08T09:52:11.333Z,9.10
2018-06-08T09:54:40.637Z,9.88
2018-06-08T09:57:10.007Z,11.83
2018-06-08T09:59:39.297Z,14.10
2018-06-08T10:02:08.525Z,8.88
2018-06-08T10:04:38.122Z,10.35
2018-06-08T10:07:07.395Z,9.20
2018-06-08T10:09:36.716Z,12.55
2018-06-08T10:12:05.876Z,9.53
2018-06-08T10:14:35.213Z,12.28
2018-06-08T10:17:04.725Z,10.53
2018-06-08T10:19:33.973Z,8.25
2018-06-08T10:22:03.249Z,9.98
2018-06-08T10:24:32.486Z,13.78
2018-06-08T10:27:01.819Z,8.60
2018-06-08T10:29:31.138Z,19.00
2018-06-08T10:32:00.471Z,13.90
2018-06-08T10:34:29.626Z,10.32
2018-06-08T10:36:58.797Z,11.55
2018-06-08T10:39:28.120Z,13.15
2018-06-08T10:41:57.448Z,15.70
2018-06-08T10:44:26.164Z,9.38
2018-06-08T10:46:55.526Z,8.15
2018-06-08T10:49:24.836Z,12.78
2018-06-08T10:51:53.985Z,11.10
2018-06-08T10:54:23.284Z,8.75
2018-06-08T10:56:52.516Z,9.35
2018-06-08T10:59:21.787Z,9.25
2018-06-08T11:01:51.044Z,10.38
2018-06-08T11:04:20.227Z,11.18
2018-06-08T11:06:49.492Z,9.13
2018-06-08T11:09:18.787Z,10.55
2018-06-08T11:11:48.206Z,8.65
2018-06-08T11:14:17.507Z,13.48
2018-06-08T11:16:46.750Z,14.78
2018-06-08T11:19:15.902Z,13.08
2018-06-08T11:21:45.198Z,9.33
2018-06-08T11:24:14.393Z,7.95
2018-06-08T11:26:43.622Z,10.63
2018-06-08T11:29:12.897Z,10.55
2018-06-08T11:31:42.208Z,9.40
2018-06-08T11:34:11.453Z,8.83
2018-06-08T11:36:41.059Z,11.38
2018-06-08T11:39:10.323Z,10.43
2018-06-08T11:41:39.638Z,7.33
2018-06-08T11:44:09.166Z,10.32
2018-06-08T11:46:38.479Z,7.97
2018-06-08T11:49:07.704Z,9.50
2018-06-08T11:51:36.919Z,7.25
2018-06-08T11:54:06.164Z,8.98
2018-06-08T11:56:35.408Z,8.08
2018-06-08T11:59:04.727Z,8.00
2018-06-08T12:01:33.905Z,9.25
2018-06-08T12:04:03.187Z,11.88
2018-06-08T12:06:32.471Z,8.30
2018-06-08T12:09:01.767Z,7.83
2018-06-08T12:11:31.050Z,8.80
2018-06-08T12:14:00.226Z,8.63
2018-06-08T12:16:29.532Z,17.00
2018-06-08T12:18:58.358Z,10.20
2018-06-08T12:21:27.562Z,11.48
2018-06-08T12:23:56.683Z,9.15
2018-06-08T12:26:25.933Z,7.67
2018-06-08T12:28:55.094Z,12.05
2018-06-08T12:31:24.184Z,11.15
2018-06-08T12:33:53.345Z,7.50
2018-06-08T12:36:22.739Z,10.35
2018-06-08T12:38:52.026Z,11.53
2018-06-08T12:41:21.197Z,7.67
2018-06-08T12:43:50.427Z,7.50
2018-06-08T12:46:19.622Z,8.38
2018-06-08T12:48:48.898Z,8.30
2018-06-08T12:51:18.834Z,7.00
2018-06-08T12:53:48.095Z,7.80
2018-06-08T12:56:17.407Z,9.30
2018-06-08T12:58:46.682Z,12.70
2018-06-08T13:01:15.851Z,11.20
2018-06-08T13:03:45.164Z,10.82
2018-06-08T13:06:14.390Z,8.25
2018-06-08T13:08:43.736Z,6.78
2018-06-08T13:11:13.085Z,8.10
2018-06-08T13:13:42.218Z,9.20
2018-06-08T13:16:11.452Z,6.55
2018-06-08T13:18:40.743Z,6.62
2018-06-08T13:21:09.910Z,9.95
2018-06-08T13:23:39.156Z,7.62
2018-06-08T13:26:08.494Z,6.83
2018-06-08T13:28:37.724Z,6.72
2018-06-08T13:31:06.996Z,7.10
2018-06-08T13:33:36.435Z,8.85
2018-06-08T13:36:05.722Z,6.22
2018-06-08T13:38:34.985Z,11.28
2018-06-08T13:41:05.954Z,10.85
2018-06-08T13:43:36.381Z,7.80
2018-06-08T13:46:44.261Z,9.35
2018-06-08T13:49:13.668Z,6.00
2018-06-08T13:51:43.025Z,7.80
2018-06-08T13:54:12.258Z,10.20
2018-06-08T13:56:41.526Z,7.20
2018-06-08T13:59:10.784Z,9.50
2018-06-08T14:01:40.183Z,6.25
2018-06-08T14:04:09.440Z,8.35
2018-06-08T14:06:38.706Z,5.72
2018-06-08T14:09:14.832Z,6.65
2018-06-08T14:11:44.353Z,9.65
2018-06-08T14:14:13.600Z,8.23
2018-06-08T14:16:42.867Z,6.37
2018-06-08T14:19:12.138Z,7.92
2018-06-08T14:21:41.544Z,8.20
2018-06-08T14:24:10.760Z,9.43
2018-06-08T14:26:40.098Z,9.38
2018-06-08T14:29:09.357Z,8.90
2018-06-08T14:31:38.556Z,7.10
2018-06-08T14:34:07.844Z,8.03
2018-06-08T14:36:37.096Z,6.47
2018-06-08T14:39:08.619Z,8.05
2018-06-08T14:41:37.924Z,6.83
2018-06-08T14:44:07.192Z,9.08
2018-06-08T14:46:36.353Z,8.48
2018-06-08T14:49:05.532Z,7.47
2018-06-08T14:51:34.786Z,9.50
2018-06-08T14:54:03.971Z,12.30
2018-06-08T14:56:33.304Z,7.75
2018-06-08T14:59:03.590Z,9.78
2018-06-08T15:01:33.206Z,8.58
2018-06-08T15:04:02.336Z,11.48
2018-06-08T15:06:31.603Z,11.08
2018-06-08T15:09:00.841Z,10.93
2018-06-08T15:11:30.115Z,9.48
2018-06-08T15:13:59.304Z,10.05
2018-06-08T15:16:28.450Z,8.93
2018-06-08T15:18:57.544Z,7.92
2018-06-08T15:21:26.986Z,10.03
2018-06-08T15:23:56.275Z,8.68
2018-06-08T15:26:25.614Z,10.50
2018-06-08T15:28:54.758Z,13.55
2018-06-08T15:31:24.113Z,10.80
2018-06-08T15:33:53.387Z,10.20
2018-06-08T15:36:22.519Z,9.55
2018-06-08T15:38:52.018Z,9.05
2018-06-08T15:41:21.414Z,8.15
2018-06-08T15:43:50.608Z,8.50
2018-06-08T15:46:19.876Z,12.20
2018-06-08T15:48:49.802Z,9.05
2018-06-08T15:51:19.039Z,9.55
2018-06-08T15:53:48.271Z,7.95
2018-06-08T15:56:17.629Z,9.90
2018-06-08T15:58:46.991Z,7.95
2018-06-08T16:01:16.221Z,12.05
2018-06-08T16:03:45.419Z,12.47
2018-06-08T16:06:14.584Z,9.58
2018-06-08T16:08:43.967Z,10.05
2018-06-08T16:11:13.817Z,7.78
2018-06-08T16:13:43.156Z,13.55
2018-06-08T16:16:12.367Z,9.18
2018-06-08T16:18:41.594Z,10.88
2018-06-08T16:21:15.336Z,13.05
2018-06-08T16:23:44.495Z,9.98
2018-06-08T16:26:13.733Z,7.75
2018-06-08T16:28:42.951Z,8.43
2018-06-08T16:31:12.210Z,9.23
2018-06-08T16:33:41.511Z,7.83
2018-06-08T16:36:10.998Z,11.63
2018-06-08T16:38:40.218Z,9.28
2018-06-08T16:41:09.541Z,8.60
2018-06-08T16:43:38.938Z,11.35
2018-06-08T16:46:08.456Z,8.25
2018-06-08T16:48:40.082Z,10.48
2018-06-08T16:51:10.511Z,10.48
2018-06-08T16:53:40.203Z,10.75
2018-06-08T16:56:09.339Z,8.15
2018-06-08T16:58:38.644Z,8.28
2018-06-08T17:01:08.010Z,13.32
2018-06-08T17:03:37.236Z,9.73
2018-06-08T17:06:06.626Z,9.85
2018-06-08T17:08:35.922Z,11.05
2018-06-08T17:11:05.363Z,9.45
2018-06-08T17:13:34.626Z,9.50
2018-06-08T17:16:04.131Z,9.03
2018-06-08T17:18:34.617Z,10.38
2018-06-08T17:21:03.967Z,11.15
2018-06-08T17:23:33.212Z,9.50
2018-06-08T17:26:03.709Z,11.53
2018-06-08T17:28:33.312Z,10.35
2018-06-08T17:31:02.546Z,10.55
2018-06-08T17:33:37.018Z,16.23
2018-06-08T17:36:08.894Z,11.20
2018-06-08T17:38:41.558Z,17.73
2018-06-08T17:41:13.684Z,14.45
2018-06-08T17:43:45.682Z,10.03
2018-06-08T17:46:16.344Z,10.53
2018-06-08T17:48:50.903Z,11.75
2018-06-08T17:51:20.352Z,14.63
2018-06-08T17:53:50.015Z,11.08
2018-06-08T17:56:20.630Z,12.00
2018-06-08T17:58:50.123Z,10.72
2018-06-08T18:01:19.423Z,11.70
2018-06-08T18:03:48.794Z,12.65
2018-06-08T18:06:18.191Z,10.05
2018-06-08T18:08:48.254Z,9.90
2018-06-08T18:11:18.040Z,10.23
2018-06-08T18:13:47.530Z,10.95
2018-06-08T18:16:16.832Z,12.40
2018-06-08T18:18:46.653Z,10.63
2018-06-08T18:21:16.007Z,9.78
2018-06-08T18:23:45.852Z,12.75
2018-06-08T18:26:15.201Z,10.35
2018-06-08T18:28:44.608Z,11.30
2018-06-08T18:31:13.926Z,11.00
2018-06-08T18:33:43.271Z,12.82
2018-06-08T18:36:12.699Z,12.05
2018-06-08T18:38:42.018Z,12.33
2018-06-08T18:41:12.088Z,13.70
2018-06-08T18:43:41.466Z,11.40
2018-06-08T18:46:10.828Z,11.57
2018-06-08T18:48:40.111Z,10.93
2018-06-08T18:51:09.615Z,10.82
2018-06-08T18:53:41.124Z,12.85
2018-06-08T18:56:11.101Z,16.30
2018-06-08T18:58:44.674Z,13.28
2018-06-08T19:01:14.545Z,14.20
2018-06-08T19:03:44.899Z,14.07
2018-06-08T19:06:14.382Z,11.80
2018-06-08T19:08:44.295Z,12.53
2018-06-08T19:11:14.379Z,13.50
2018-06-08T19:13:43.973Z,10.75
2018-06-08T19:16:13.584Z,10.82
2018-06-08T19:18:47.467Z,11.68
2018-06-08T19:21:17.677Z,12.68
2018-06-08T19:23:47.857Z,14.85
2018-06-08T19:26:17.933Z,12.75
2018-06-08T19:28:48.129Z,11.03
2018-06-08T19:31:24.267Z,21.60
2018-06-08T19:33:55.341Z,11.93
2018-06-08T19:36:27.838Z,12.88
2018-06-08T19:38:57.581Z,11.20
2018-06-08T19:41:29.627Z,11.78
2018-06-08T19:44:01.573Z,15.48
2018-06-08T19:46:30.942Z,12.43
2018-06-08T19:49:01.388Z,11.43
2018-06-08T19:51:31.114Z,11.65
2018-06-08T19:54:00.775Z,17.12
2018-06-08T19:56:30.314Z,20.05
2018-06-08T19:58:59.986Z,13.15
2018-06-08T20:01:30.351Z,13.95
2018-06-08T20:04:00.131Z,12.60
2018-06-08T20:06:30.574Z,16.62
2018-06-08T20:09:00.849Z,13.32
2018-06-08T20:11:30.548Z,13.15
2018-06-08T20:13:59.823Z,15.70
2018-06-08T20:16:29.771Z,13.30
2018-06-08T20:18:59.120Z,15.08
2018-06-08T20:21:28.272Z,13.30
2018-06-08T20:23:57.847Z,14.53
2018-06-08T20:26:27.047Z,15.30
2018-06-08T20:28:56.499Z,15.95
2018-06-08T20:31:25.912Z,17.90
2018-06-08T20:33:55.122Z,19.90
2018-06-08T20:36:24.462Z,19.12
2018-06-08T20:38:53.679Z,15.28
2018-06-08T20:41:22.861Z,15.23
2018-06-08T20:43:52.086Z,18.98
2018-06-08T20:46:21.181Z,15.18
2018-06-08T20:48:50.441Z,16.35
2018-06-08T20:51:19.815Z,16.15
2018-06-08T20:53:49.112Z,17.37
2018-06-08T20:56:18.367Z,15.98
2018-06-08T20:58:47.471Z,16.97
2018-06-08T21:01:16.694Z,22.10
2018-06-08T21:03:45.979Z,14.68
2018-06-08T21:06:15.201Z,17.25
2018-06-08T21:08:44.417Z,16.62
2018-06-08T21:11:13.713Z,18.60
2018-06-08T21:13:43.072Z,16.93
2018-06-08T21:16:12.572Z,18.50
2018-06-08T21:18:41.986Z,22.02
2018-06-08T21:21:11.435Z,16.82
2018-06-08T21:23:40.958Z,16.67
2018-06-08T21:26:10.307Z,21.12
2018-06-08T21:28:39.758Z,17.12
2018-06-08T21:31:09.199Z,16.75
2018-06-08T21:33:38.466Z,16.02
2018-06-08T21:36:07.956Z,16.65
2018-06-08T21:38:37.302Z,16.82
2018-06-08T21:41:06.566Z,17.70
2018-06-08T21:43:36.262Z,18.40
2018-06-08T21:46:05.655Z,19.55
2018-06-08T21:48:34.991Z,18.00
2018-06-08T21:51:05.385Z,18.27
2018-06-08T21:53:34.814Z,18.12
2018-06-08T21:56:04.231Z,18.12
2018-06-08T21:58:33.458Z,18.62
2018-06-08T22:01:02.882Z,18.20
2018-06-08T22:03:32.187Z,19.05
2018-06-08T22:06:01.748Z,18.92
2018-06-08T22:08:31.052Z,19.17
2018-06-08T22:11:00.220Z,18.00
2018-06-08T22:13:29.621Z,19.50
2018-06-08T22:15:59.135Z,21.52
2018-06-08T22:18:28.943Z,20.85
2018-06-08T22:20:58.390Z,19.70
2018-06-08T22:23:27.864Z,19.80
2018-06-08T22:25:57.278Z,19.85
2018-06-08T22:28:26.575Z,19.80
2018-06-08T22:30:55.854Z,18.80
2018-06-08T22:33:24.812Z,20.80
2018-06-08T22:35:54.242Z,20.27
2018-06-08T22:38:23.621Z,19.62
2018-06-08T22:40:53.005Z,18.98
2018-06-08T22:43:22.432Z,19.35
2018-06-08T22:45:51.710Z,20.72
2018-06-08T22:48:21.339Z,19.73
2018-06-08T22:50:51.715Z,20.85
2018-06-08T22:53:21.227Z,20.17
2018-06-08T22:55:50.901Z,19.77
2018-06-08T22:58:20.247Z,19.95
2018-06-08T23:00:49.981Z,19.77
2018-06-08T23:03:19.709Z,18.32
2018-06-08T23:05:49.156Z,16.40
2018-06-08T23:08:19.362Z,18.05
2018-06-08T23:10:48.840Z,20.00
2018-06-08T23:13:18.280Z,19.17
2018-06-08T23:15:47.765Z,18.73
2018-06-08T23:18:18.045Z,18.55
2018-06-08T23:20:47.401Z,21.02
2018-06-08T23:23:16.824Z,25.30
2018-06-08T23:25:46.285Z,18.30
2018-06-08T23:28:16.709Z,17.70
2018-06-08T23:30:46.150Z,16.27
2018-06-08T23:33:15.559Z,16.30
2018-06-08T23:35:45.655Z,16.75
2018-06-08T23:38:15.188Z,13.10
2018-06-08T23:40:44.818Z,12.82
2018-06-08T23:43:14.402Z,14.43
2018-06-08T23:45:44.688Z,16.77
2018-06-08T23:48:14.918Z,15.88
2018-06-08T23:50:45.232Z,14.05
2018-06-08T23:53:14.967Z,12.30
2018-06-08T23:55:45.010Z,15.28
2018-06-08T23:58:14.816Z,10.10
